createdAt,value
2023-07-03T00:00:29.543Z,18.60
2023-07-03T00:02:57.343Z,18.60
2023-07-03T00:05:25.483Z,18.60
2023-07-03T00:07:53.642Z,18.60
2023-07-03T00:10:22.744Z,18.40
2023-07-03T00:12:51.048Z,18.40
2023-07-03T00:15:20.373Z,18.40
2023-07-03T00:17:48.228Z,18.40
2023-07-03T00:20:16.570Z,18.40
2023-07-03T00:22:47.590Z,18.40
2023-07-03T00:25:15.422Z,18.40
2023-07-03T00:27:43.225Z,18.40
2023-07-03T00:30:12.509Z,18.30
2023-07-03T00:32:41.714Z,18.30
2023-07-03T00:35:10.246Z,18.30
2023-07-03T00:37:38.019Z,18.30
2023-07-03T00:40:08.078Z,18.30
2023-07-03T00:42:36.343Z,18.20
2023-07-03T00:45:07.183Z,18.20
2023-07-03T00:47:35.053Z,18.20
2023-07-03T00:50:04.304Z,18.20
2023-07-03T00:52:32.175Z,18.30
2023-07-03T00:55:00.138Z,18.20
2023-07-03T00:57:27.965Z,18.20
2023-07-03T00:59:55.856Z,18.10
2023-07-03T01:02:29.035Z,18.10
2023-07-03T01:05:03.386Z,18.10
2023-07-03T01:07:35.138Z,18.10
2023-07-03T01:10:07.119Z,18.10
2023-07-03T01:12:40.575Z,18.10
2023-07-03T01:15:12.205Z,18.10
2023-07-03T01:17:42.191Z,18.00
2023-07-03T01:20:15.029Z,18.00
2023-07-03T01:22:48.521Z,18.00
2023-07-03T01:25:21.856Z,18.00
2023-07-03T01:27:53.925Z,17.90
2023-07-03T01:30:23.362Z,17.90
2023-07-03T01:32:54.309Z,17.90
2023-07-03T01:35:23.119Z,17.90
2023-07-03T01:37:53.861Z,17.80
2023-07-03T01:40:25.347Z,17.80
2023-07-03T01:42:54.928Z,17.80
2023-07-03T01:45:23.254Z,17.80
2023-07-03T01:47:51.336Z,17.80
2023-07-03T01:50:22.397Z,17.80
2023-07-03T01:52:56.273Z,17.70
2023-07-03T01:55:33.739Z,17.70
2023-07-03T01:58:06.807Z,17.70
2023-07-03T02:00:41.584Z,17.60
2023-07-03T02:03:18.856Z,17.60
2023-07-03T02:05:49.343Z,17.60
2023-07-03T02:08:19.298Z,17.50
2023-07-03T02:10:48.855Z,17.50
2023-07-03T02:13:16.670Z,17.50
2023-07-03T02:15:44.505Z,17.50
2023-07-03T02:18:18.673Z,17.50
2023-07-03T02:20:46.782Z,17.50
2023-07-03T02:23:14.648Z,17.40
2023-07-03T02:25:42.435Z,17.40
2023-07-03T02:28:13.001Z,17.40
2023-07-03T02:30:40.861Z,17.40
2023-07-03T02:33:08.655Z,17.30
2023-07-03T02:35:36.987Z,17.30
2023-07-03T02:38:04.807Z,17.30
2023-07-03T02:40:32.581Z,17.30
2023-07-03T02:43:00.415Z,17.40
2023-07-03T02:45:29.551Z,17.30
2023-07-03T02:47:57.408Z,17.30
2023-07-03T02:50:25.295Z,17.30
2023-07-03T02:52:53.063Z,17.20
2023-07-03T02:55:20.896Z,17.20
2023-07-03T02:57:48.831Z,17.30
2023-07-03T03:00:17.922Z,17.30
2023-07-03T03:02:47.208Z,17.30
2023-07-03T03:05:15.504Z,17.20
2023-07-03T03:07:43.710Z,17.20
2023-07-03T03:10:11.932Z,17.20
2023-07-03T03:12:40.886Z,17.20
2023-07-03T03:15:09.487Z,17.20
2023-07-03T03:17:37.574Z,17.20
2023-07-03T03:20:09.248Z,17.10
2023-07-03T03:22:37.136Z,17.10
2023-07-03T03:25:05.489Z,17.10
2023-07-03T03:27:33.343Z,17.10
2023-07-03T03:30:01.218Z,17.10
2023-07-03T03:32:29.641Z,17.10
2023-07-03T03:34:57.519Z,17.10
2023-07-03T03:37:26.828Z,17.20
2023-07-03T03:39:54.737Z,17.20
2023-07-03T03:42:22.903Z,17.10
2023-07-03T03:44:50.748Z,17.10
2023-07-03T03:47:20.606Z,17.10
2023-07-03T03:49:48.607Z,17.20
2023-07-03T03:52:16.457Z,17.20
2023-07-03T03:54:47.256Z,17.20
2023-07-03T03:57:15.153Z,17.20
2023-07-03T03:59:43.452Z,17.20
2023-07-03T04:02:11.690Z,17.20
2023-07-03T04:04:39.583Z,17.10
2023-07-03T04:07:07.962Z,17.10
2023-07-03T04:09:35.764Z,17.00
2023-07-03T04:12:05.525Z,17.10
2023-07-03T04:14:33.346Z,17.10
2023-07-03T04:17:02.466Z,17.10
2023-07-03T04:19:31.103Z,17.20
2023-07-03T04:21:58.916Z,17.20
2023-07-03T04:24:26.776Z,17.20
2023-07-03T04:26:55.267Z,17.20
2023-07-03T04:29:24.703Z,17.20
2023-07-03T04:31:52.501Z,17.20
2023-07-03T04:34:20.328Z,17.20
2023-07-03T04:36:49.356Z,17.30
2023-07-03T04:39:17.168Z,17.30
2023-07-03T04:41:45.255Z,17.30
2023-07-03T04:44:14.825Z,17.40
2023-07-03T04:46:44.934Z,17.40
2023-07-03T04:49:13.306Z,17.40
2023-07-03T04:51:42.698Z,17.50
2023-07-03T04:54:10.740Z,17.50
2023-07-03T04:56:38.544Z,17.50
2023-07-03T04:59:06.390Z,17.50
2023-07-03T05:01:34.244Z,17.60
2023-07-03T05:04:03.754Z,17.60
2023-07-03T05:06:31.599Z,17.70
2023-07-03T05:08:59.367Z,17.80
2023-07-03T05:11:27.194Z,18.10
2023-07-03T05:13:55.126Z,18.10
2023-07-03T05:16:23.039Z,18.20
2023-07-03T05:18:50.922Z,18.30
2023-07-03T05:21:20.238Z,18.30
2023-07-03T05:23:48.055Z,18.60
2023-07-03T05:26:15.887Z,18.40
2023-07-03T05:28:43.677Z,18.50
2023-07-03T05:31:11.514Z,19.40
2023-07-03T05:33:39.354Z,19.50
2023-07-03T05:36:07.892Z,19.50
2023-07-03T05:38:37.063Z,19.40
2023-07-03T05:41:04.852Z,18.80
2023-07-03T05:43:32.708Z,20.10
2023-07-03T05:46:00.528Z,21.30
2023-07-03T05:48:28.290Z,21.30
2023-07-03T05:50:56.115Z,19.80
2023-07-03T05:53:24.971Z,20.00
2023-07-03T05:55:58.449Z,19.90
2023-07-03T05:58:29.612Z,20.10
2023-07-03T06:00:59.979Z,22.20
2023-07-03T06:03:28.123Z,22.40
2023-07-03T06:05:56.021Z,22.90
2023-07-03T06:08:23.859Z,23.30
2023-07-03T06:10:52.441Z,22.50
2023-07-03T06:13:21.767Z,22.60
2023-07-03T06:15:49.820Z,22.50
2023-07-03T06:18:17.766Z,21.60
2023-07-03T06:20:45.636Z,20.50
2023-07-03T06:23:13.445Z,19.90
2023-07-03T06:25:41.820Z,20.20
2023-07-03T06:28:09.705Z,20.00
2023-07-03T06:30:38.918Z,20.70
2023-07-03T06:33:06.924Z,22.80
2023-07-03T06:35:35.024Z,22.20
2023-07-03T06:38:04.119Z,23.10
2023-07-03T06:40:31.933Z,24.10
2023-07-03T06:42:59.830Z,24.30
2023-07-03T06:45:27.670Z,24.70
2023-07-03T06:47:56.846Z,24.70
2023-07-03T06:50:24.668Z,23.10
2023-07-03T06:52:52.461Z,23.60
2023-07-03T06:55:20.255Z,23.60
2023-07-03T06:57:48.085Z,21.10
2023-07-03T07:00:16.714Z,20.70
2023-07-03T07:02:44.541Z,20.90
2023-07-03T07:05:13.973Z,20.60
2023-07-03T07:07:41.934Z,20.50
2023-07-03T07:10:10.106Z,20.60
2023-07-03T07:12:37.890Z,21.40
2023-07-03T07:15:06.977Z,21.10
2023-07-03T07:17:50.570Z,20.50
2023-07-03T07:20:20.636Z,20.40
2023-07-03T07:22:49.795Z,20.30
2023-07-03T07:25:17.746Z,20.50
2023-07-03T07:27:45.536Z,20.20
2023-07-03T07:30:14.858Z,20.30
2023-07-03T07:32:42.641Z,20.50
2023-07-03T07:35:10.817Z,20.70
2023-07-03T07:37:40.212Z,21.40
2023-07-03T07:40:09.213Z,21.50
2023-07-03T07:42:37.377Z,22.10
2023-07-03T07:45:06.986Z,21.70
2023-07-03T07:47:34.885Z,21.50
2023-07-03T07:50:02.774Z,21.20
2023-07-03T07:52:30.609Z,20.90
2023-07-03T07:55:00.039Z,21.40
2023-07-03T07:57:30.267Z,21.30
2023-07-03T07:59:58.155Z,21.60
2023-07-03T08:02:26.082Z,21.30
2023-07-03T08:04:54.084Z,21.30
2023-07-03T08:07:22.021Z,21.20
2023-07-03T08:09:49.832Z,21.20
2023-07-03T08:12:18.987Z,20.90
2023-07-03T08:14:46.772Z,21.00
2023-07-03T08:17:14.630Z,21.10
2023-07-03T08:19:42.479Z,21.00
2023-07-03T08:22:10.296Z,21.30
2023-07-03T08:24:38.118Z,21.20
2023-07-03T08:27:06.533Z,21.30
2023-07-03T08:29:35.815Z,21.00
2023-07-03T08:32:03.798Z,20.90
2023-07-03T08:34:31.901Z,21.00
2023-07-03T08:39:30.751Z,21.20
2023-07-03T08:42:03.529Z,21.30
2023-07-03T08:44:32.116Z,21.70
2023-07-03T08:47:11.562Z,21.60
2023-07-03T08:49:41.919Z,21.80
2023-07-03T08:52:09.962Z,21.70
2023-07-03T08:54:39.635Z,22.70
2023-07-03T08:57:08.083Z,22.30
2023-07-03T08:59:36.661Z,22.00
2023-07-03T09:02:16.934Z,21.60
2023-07-03T09:04:59.481Z,21.50
2023-07-03T09:07:34.340Z,21.80
2023-07-03T09:10:08.511Z,21.90
2023-07-03T09:12:40.195Z,22.10
2023-07-03T09:15:16.563Z,22.30
2023-07-03T09:17:48.322Z,22.50
2023-07-03T09:20:17.416Z,22.50
2023-07-03T09:22:51.865Z,22.20
2023-07-03T09:25:25.136Z,21.80
2023-07-03T09:27:56.714Z,21.60
2023-07-03T09:30:24.809Z,21.70
2023-07-03T09:32:54.094Z,22.50
2023-07-03T09:35:23.756Z,22.00
2023-07-03T09:37:53.750Z,22.50
2023-07-03T09:40:25.891Z,22.80
2023-07-03T09:42:54.612Z,23.00
2023-07-03T09:45:25.432Z,22.60
2023-07-03T09:47:59.617Z,22.70
2023-07-03T09:50:30.776Z,22.90
2023-07-03T09:53:08.388Z,23.60
2023-07-03T09:55:37.942Z,23.10
2023-07-03T09:58:13.532Z,23.00
2023-07-03T10:00:48.641Z,24.00
2023-07-03T10:08:43.815Z,24.20
2023-07-03T10:11:13.095Z,24.30
2023-07-03T10:13:47.900Z,24.50
2023-07-03T10:16:17.179Z,24.40
2023-07-03T10:18:49.877Z,23.50
2023-07-03T10:21:22.237Z,23.30
2023-07-03T10:23:51.404Z,23.20
2023-07-03T10:26:24.704Z,23.90
2023-07-03T10:28:59.826Z,24.00
2023-07-03T10:31:32.609Z,24.10
2023-07-03T10:34:07.741Z,24.20
2023-07-03T10:36:37.795Z,24.20
2023-07-03T10:39:11.052Z,24.20
2023-07-03T10:41:45.081Z,24.30
2023-07-03T10:44:17.295Z,23.90
2023-07-03T10:46:50.150Z,23.60
2023-07-03T10:49:25.124Z,23.50
2023-07-03T10:52:01.590Z,23.30
2023-07-03T10:54:33.947Z,23.00
2023-07-03T10:57:05.114Z,22.90
2023-07-03T10:59:37.834Z,22.90
2023-07-03T11:02:18.255Z,23.10
2023-07-03T11:04:57.366Z,23.00
2023-07-03T11:07:33.227Z,23.10
2023-07-03T11:10:08.287Z,23.10
2023-07-03T11:12:44.808Z,22.90
2023-07-03T11:15:21.861Z,23.00
2023-07-03T11:23:18.432Z,24.10
2023-07-03T11:28:32.429Z,23.60
2023-07-03T11:31:02.284Z,23.70
2023-07-03T11:37:03.161Z,24.10
2023-07-03T11:44:48.502Z,24.10
2023-07-03T11:47:20.186Z,23.80
2023-07-03T11:49:59.651Z,23.50
2023-07-03T11:52:31.012Z,23.80
2023-07-03T11:55:04.672Z,23.80
2023-07-03T11:57:35.706Z,23.70
2023-07-03T12:00:17.387Z,23.70
2023-07-03T12:02:54.279Z,23.80
2023-07-03T12:05:58.098Z,23.80
2023-07-03T12:08:46.403Z,24.00
2023-07-03T12:11:16.275Z,23.60
2023-07-03T12:13:53.185Z,23.60
2023-07-03T12:16:24.775Z,23.80
2023-07-03T12:19:01.035Z,24.20
2023-07-03T12:21:36.804Z,24.40
2023-07-03T12:24:22.611Z,24.40
2023-07-03T12:26:56.451Z,24.50
2023-07-03T12:29:24.309Z,24.80
2023-07-03T12:31:59.878Z,24.70
2023-07-03T12:34:28.301Z,24.50
2023-07-03T12:37:02.270Z,24.60
2023-07-03T12:39:34.384Z,24.90
2023-07-03T12:42:10.874Z,24.80
2023-07-03T12:44:39.135Z,24.60
2023-07-03T12:47:13.143Z,24.60
2023-07-03T12:49:56.406Z,24.50
2023-07-03T12:52:25.717Z,24.40
2023-07-03T12:55:09.317Z,24.30
2023-07-03T12:57:41.507Z,24.30
2023-07-03T13:00:17.461Z,24.40
2023-07-03T13:02:46.148Z,24.50
2023-07-03T13:05:21.991Z,24.50
2023-07-03T13:07:50.984Z,24.50
2023-07-03T13:10:21.562Z,24.70
2023-07-03T13:13:06.351Z,24.60
2023-07-03T13:15:36.634Z,24.60
2023-07-03T13:18:06.637Z,24.60
2023-07-03T13:20:34.820Z,25.00
2023-07-03T13:23:05.062Z,25.20
2023-07-03T13:25:37.247Z,25.20
2023-07-03T13:28:08.180Z,25.30
2023-07-03T13:30:38.959Z,25.10
2023-07-03T13:33:09.433Z,24.90
2023-07-03T13:35:42.006Z,24.90
2023-07-03T13:38:27.772Z,24.90
2023-07-03T13:40:59.120Z,25.20
2023-07-03T13:43:30.518Z,25.40
2023-07-03T13:45:59.326Z,25.40
2023-07-03T13:48:28.387Z,25.30
2023-07-03T13:50:57.122Z,25.30
2023-07-03T13:53:26.742Z,24.70
2023-07-03T13:55:56.035Z,24.40
2023-07-03T13:58:23.854Z,24.70
2023-07-03T14:00:51.664Z,24.30
2023-07-03T14:03:19.600Z,24.20
2023-07-03T14:05:47.759Z,24.40
2023-07-03T14:08:18.732Z,24.30
2023-07-03T14:10:46.528Z,24.50
2023-07-03T14:13:15.814Z,24.90
2023-07-03T14:15:43.740Z,24.90
2023-07-03T14:18:11.948Z,24.60
2023-07-03T14:20:39.789Z,24.90
2023-07-03T14:23:07.650Z,24.70
2023-07-03T14:25:35.470Z,24.40
2023-07-03T14:28:03.413Z,24.40
2023-07-03T14:30:32.966Z,24.40
2023-07-03T14:33:00.848Z,24.20
2023-07-03T14:35:28.686Z,24.20
2023-07-03T14:37:56.517Z,24.40
2023-07-03T14:40:24.333Z,23.90
2023-07-03T14:42:52.142Z,24.40
2023-07-03T14:45:20.210Z,24.30
2023-07-03T14:47:49.347Z,24.30
2023-07-03T14:50:17.335Z,24.50
2023-07-03T14:52:46.914Z,24.60
2023-07-03T14:55:16.102Z,24.00
2023-07-03T14:57:44.938Z,23.90
2023-07-03T15:00:13.899Z,24.20
2023-07-03T15:02:43.187Z,24.40
2023-07-03T15:05:12.578Z,24.30
2023-07-03T15:07:40.448Z,24.50
2023-07-03T15:10:09.610Z,24.60
2023-07-03T15:12:38.141Z,24.50
2023-07-03T15:15:07.196Z,24.30
2023-07-03T15:17:36.698Z,24.30
2023-07-03T15:20:05.097Z,24.20
2023-07-03T15:22:34.358Z,24.40
2023-07-03T15:25:02.231Z,24.40
2023-07-03T15:27:30.571Z,24.40
2023-07-03T15:29:58.356Z,24.40
2023-07-03T15:32:27.342Z,24.30
2023-07-03T15:34:55.590Z,24.30
2023-07-03T15:37:23.440Z,24.40
2023-07-03T15:39:52.561Z,24.40
2023-07-03T15:42:20.412Z,24.50
2023-07-03T15:44:56.777Z,24.30
2023-07-03T15:47:24.955Z,24.30
2023-07-03T15:49:55.987Z,24.30
2023-07-03T15:52:24.172Z,24.20
2023-07-03T15:54:53.913Z,24.10
2023-07-03T15:57:23.069Z,24.00
2023-07-03T15:59:50.920Z,24.10
2023-07-03T16:02:18.808Z,24.20
2023-07-03T16:04:46.658Z,24.20
2023-07-03T16:07:14.525Z,24.30
2023-07-03T16:09:42.331Z,24.00
2023-07-03T16:12:11.611Z,24.00
2023-07-03T16:14:39.440Z,24.00
2023-07-03T16:17:07.320Z,23.50
2023-07-03T16:19:35.186Z,23.40
2023-07-03T16:22:03.019Z,23.80
2023-07-03T16:24:30.875Z,23.60
2023-07-03T16:26:58.648Z,23.50
2023-07-03T16:29:27.780Z,23.60
2023-07-03T16:31:55.733Z,23.50
2023-07-03T16:34:23.766Z,23.80
2023-07-03T16:36:51.528Z,23.60
2023-07-03T16:39:19.356Z,23.30
2023-07-03T16:41:47.166Z,23.70
2023-07-03T16:44:15.366Z,23.70
2023-07-03T16:46:44.598Z,23.70
2023-07-03T16:49:12.377Z,23.40
2023-07-03T16:51:40.216Z,23.50
2023-07-03T16:54:08.483Z,23.60
2023-07-03T16:56:36.365Z,23.70
2023-07-03T16:59:04.741Z,23.70
2023-07-03T17:01:32.623Z,23.50
2023-07-03T17:04:01.966Z,23.50
2023-07-03T17:06:32.147Z,23.50
2023-07-03T17:09:01.178Z,23.60
2023-07-03T17:11:29.126Z,23.40
2023-07-03T17:14:00.166Z,23.40
2023-07-03T17:16:28.434Z,23.60
2023-07-03T17:18:56.548Z,23.60
2023-07-03T17:21:25.724Z,23.50
2023-07-03T17:23:58.764Z,23.50
2023-07-03T17:26:26.575Z,23.50
2023-07-03T17:28:54.432Z,23.30
2023-07-03T17:31:25.033Z,23.20
2023-07-03T17:33:53.206Z,23.10
2023-07-03T17:36:21.467Z,23.00
2023-07-03T17:38:50.912Z,23.00
2023-07-03T17:41:20.338Z,23.10
2023-07-03T17:43:48.702Z,23.20
2023-07-03T17:46:17.757Z,23.20
2023-07-03T17:48:45.749Z,23.00
2023-07-03T17:51:13.629Z,23.20
2023-07-03T17:53:42.121Z,23.10
2023-07-03T17:56:11.273Z,23.00
2023-07-03T17:58:39.500Z,22.90
2023-07-03T18:01:07.400Z,22.90
2023-07-03T18:03:35.310Z,22.90
2023-07-03T18:06:03.663Z,22.80
2023-07-03T18:08:31.703Z,22.80
2023-07-03T18:10:59.702Z,23.00
2023-07-03T18:13:29.171Z,22.70
2023-07-03T18:15:57.635Z,22.80
2023-07-03T18:18:25.757Z,22.90
2023-07-03T18:20:53.609Z,22.70
2023-07-03T18:23:21.455Z,22.50
2023-07-03T18:25:49.459Z,22.80
2023-07-03T18:28:18.599Z,22.70
2023-07-03T18:30:57.116Z,22.80
2023-07-03T18:33:24.989Z,22.80
2023-07-03T18:35:52.984Z,22.70
2023-07-03T18:38:20.867Z,22.60
2023-07-03T18:40:48.706Z,22.70
2023-07-03T18:43:16.548Z,22.70
2023-07-03T18:45:48.630Z,22.70
2023-07-03T18:48:18.084Z,22.60
2023-07-03T18:50:45.850Z,22.60
2023-07-03T18:53:13.925Z,22.60
2023-07-03T18:55:46.924Z,22.60
2023-07-03T18:58:15.115Z,22.50
2023-07-03T19:00:43.131Z,22.60
2023-07-03T19:03:10.995Z,22.60
2023-07-03T19:05:49.881Z,22.60
2023-07-03T19:08:19.124Z,22.50
2023-07-03T19:10:46.997Z,22.50
2023-07-03T19:13:14.857Z,22.50
2023-07-03T19:15:42.800Z,22.40
2023-07-03T19:18:10.971Z,22.40
2023-07-03T19:20:41.332Z,22.40
2023-07-03T19:23:10.115Z,22.40
2023-07-03T19:25:37.943Z,22.30
2023-07-03T19:28:05.756Z,22.30
2023-07-03T19:30:33.610Z,22.30
2023-07-03T19:33:01.684Z,22.30
2023-07-03T19:35:30.565Z,22.20
2023-07-03T19:38:00.290Z,22.20
2023-07-03T19:40:28.131Z,22.20
2023-07-03T19:42:55.936Z,22.10
2023-07-03T19:45:23.721Z,22.10
2023-07-03T19:47:51.629Z,22.10
2023-07-03T19:50:19.606Z,22.10
2023-07-03T19:52:47.450Z,22.00
2023-07-03T19:55:16.805Z,22.00
2023-07-03T19:57:44.635Z,22.00
2023-07-03T20:00:14.068Z,22.00
2023-07-03T20:02:45.265Z,22.00
2023-07-03T20:05:13.730Z,21.90
2023-07-03T20:07:41.936Z,22.00
2023-07-03T20:10:10.730Z,21.90
2023-07-03T20:12:39.923Z,21.90
2023-07-03T20:15:09.121Z,21.80
2023-07-03T20:17:40.073Z,21.80
2023-07-03T20:20:08.788Z,21.80
2023-07-03T20:22:37.063Z,21.70
2023-07-03T20:25:05.540Z,21.70
2023-07-03T20:27:33.327Z,21.70
2023-07-03T20:30:02.523Z,21.70
2023-07-03T20:32:33.995Z,21.70
2023-07-03T20:35:02.539Z,21.70
2023-07-03T20:37:30.368Z,21.70
2023-07-03T20:39:59.864Z,21.70
2023-07-03T20:42:28.223Z,21.70
2023-07-03T20:44:56.520Z,21.60
2023-07-03T20:47:28.736Z,21.60
2023-07-03T20:49:56.611Z,21.60
2023-07-03T20:52:26.200Z,21.60
2023-07-03T20:55:13.173Z,21.60
2023-07-03T20:57:41.017Z,21.50
2023-07-03T21:00:13.714Z,21.50
2023-07-03T21:02:43.015Z,21.50
2023-07-03T21:05:11.356Z,21.50
2023-07-03T21:07:39.183Z,21.40
2023-07-03T21:10:08.703Z,21.40
2023-07-03T21:12:36.566Z,21.40
2023-07-03T21:15:04.773Z,21.40
2023-07-03T21:17:32.672Z,21.40
2023-07-03T21:20:02.008Z,21.30
2023-07-03T21:22:29.795Z,21.30
2023-07-03T21:24:57.589Z,21.30
2023-07-03T21:27:25.433Z,21.30
2023-07-03T21:29:53.228Z,21.20
2023-07-03T21:32:21.048Z,21.10
2023-07-03T21:34:50.039Z,21.10
2023-07-03T21:37:21.528Z,21.10
2023-07-03T21:39:49.336Z,21.10
2023-07-03T21:42:17.151Z,21.00
2023-07-03T21:44:44.923Z,21.00
2023-07-03T21:47:14.095Z,20.90
2023-07-03T21:49:41.940Z,20.90
2023-07-03T21:52:09.722Z,20.90
2023-07-03T21:54:38.898Z,20.80
2023-07-03T21:57:07.287Z,20.80
2023-07-03T21:59:35.101Z,20.80
2023-07-03T22:02:04.732Z,20.70
2023-07-03T22:04:32.749Z,20.80
2023-07-03T22:07:00.655Z,20.70
2023-07-03T22:09:37.202Z,20.70
2023-07-03T22:12:08.274Z,20.70
2023-07-03T22:14:36.165Z,20.70
2023-07-03T22:17:04.462Z,20.60
2023-07-03T22:19:32.268Z,20.60
2023-07-03T22:22:00.201Z,20.60
2023-07-03T22:24:28.036Z,20.50
2023-07-03T22:26:56.277Z,20.50
2023-07-03T22:29:25.489Z,20.50
2023-07-03T22:31:53.350Z,20.50
2023-07-03T22:34:21.187Z,20.50
2023-07-03T22:36:49.103Z,20.50
2023-07-03T22:39:16.984Z,20.50
2023-07-03T22:41:47.598Z,20.40
2023-07-03T22:44:15.413Z,20.40
2023-07-03T22:46:44.823Z,20.40
2023-07-03T22:49:24.408Z,20.40
2023-07-03T22:51:53.829Z,20.40
2023-07-03T22:54:22.465Z,20.40
2023-07-03T22:56:50.346Z,20.40
2023-07-03T23:02:01.534Z,20.30
2023-07-03T23:04:29.356Z,20.30
2023-07-03T23:06:57.653Z,20.30
2023-07-03T23:09:27.776Z,20.30
2023-07-03T23:11:55.739Z,20.30
2023-07-03T23:14:23.533Z,20.30
2023-07-03T23:16:54.641Z,20.30
2023-07-03T23:19:25.452Z,20.30
2023-07-03T23:21:53.509Z,20.30
2023-07-03T23:24:21.388Z,20.20
2023-07-03T23:26:51.575Z,20.20
2023-07-03T23:29:19.376Z,20.20
2023-07-03T23:31:47.178Z,20.20
2023-07-03T23:34:15.603Z,20.20
2023-07-03T23:36:44.760Z,20.20
2023-07-03T23:39:15.052Z,20.10
2023-07-03T23:41:42.854Z,20.10
2023-07-03T23:44:10.639Z,20.10
2023-07-03T23:46:38.716Z,20.00
2023-07-03T23:49:08.197Z,20.10
2023-07-03T23:51:36.126Z,20.00
2023-07-03T23:54:06.778Z,20.00
2023-07-03T23:56:35.778Z,20.10
2023-07-03T23:59:04.633Z,20.10
